Etusivu
METAR-TAF:

METAR-TAF

Lentoasemat :

Chetwynd, Brittiläinen Kolumbia, Kanada

Leveyspiiri: 55-42N, Pituuspiiri: 121-38W, korkeus merenpinnasta: 609 m

Tämänhetkinen sää

Tämä raportti tehtiin 1 tunti ja 20 minuuttia sitten, kello 13.00 UTC
Tuuli 6 kn lännestä/lounaasta
Lämpötila -2°C
Kosteus 59%
Ilmanpaine 1024 hPa
Näkyvyys: 56.3 km
Muutamia pilviä 10000 ft:n korkeudessa
Pilvistä 21000 ft:n korkeudessa

METAR: CYCQ 251300Z 25006KT 35SM FEW100 OVC210 M02/M09 A3024 RMK AC1CI8 AC TR SLP270

Aika: 07:20 (14:20 UTC)


TAF: puuttuu

Säähavainnot ja -ennusteet yli 4000 lentoasemalta (METAR- ja TAF-raportit).

Käytössä olevat sääasemat on merkitty karttaan keltaisilla ja punaisilla pisteillä.

Aseta hiiri pisteen päälle nähdäksesi sääaseman nimen.

Klikkaa sitten nähdäksesi säähavainnot ja -ennusteet.

Kartan vaihtaminen: klikkaa mustalla rastilla varustettuja vihreitä pisteitä, niin voit zoomata sisään; viivalla varustettua vihreää pistettä, niin voit zoomata ulos tai vihreitä nuolia, niin pääset viereisille kartoille.


METAR-TAF: